Terminal Aerodrome Forecast
Issued by NWS

Home | Current Version | Previous Version | Text Only | Print | Product List | Glossary On
Versions: 1 2 3 4 5 6 7 8 9 10 11 12 13 14 15 16 17 18 19 20 21 22 23 24 25 26 27 28 29 30 31 32 33 34 35
000
FTAK31 PANC 121147
TAFASN
TAF
PASN 121147Z 1212/1312 35027G35KT 6SM -SHSN BR SCT015 BKN025
      TEMPO 1212/1216 5SM -SHSN BR BKN015 OVC035
     FM122300 33020G30KT 6SM -SHSN BR SCT025 BKN035=

USA.gov is the U.S. government's official web portal to all federal, state and local government web resources and services.